createdAt,value
2019-04-30T00:02:11.201Z,7.40
2019-04-30T00:04:50.500Z,7.40
2019-04-30T00:07:19.229Z,7.50
2019-04-30T00:09:49.212Z,7.60
2019-04-30T00:12:18.239Z,7.60
2019-04-30T00:14:46.721Z,7.60
2019-04-30T00:17:19.261Z,7.60
2019-04-30T00:19:45.944Z,7.50
2019-04-30T00:22:15.840Z,7.60
2019-04-30T00:24:49.757Z,7.60
2019-04-30T00:27:15.183Z,7.50
2019-04-30T00:29:45.641Z,7.60
2019-04-30T00:32:15.793Z,7.50
2019-04-30T00:34:45.598Z,7.50
2019-04-30T00:37:18.538Z,7.60
2019-04-30T00:39:50.692Z,7.60
2019-04-30T00:42:17.251Z,7.60
2019-04-30T00:44:45.642Z,7.70
2019-04-30T00:47:15.422Z,7.60
2019-04-30T00:49:44.849Z,7.50
2019-04-30T00:52:15.400Z,7.50
2019-04-30T00:54:45.219Z,7.60
2019-04-30T00:57:15.188Z,7.60
2019-04-30T00:59:47.779Z,7.50
2019-04-30T01:02:32.551Z,7.50
2019-04-30T01:05:11.510Z,7.60
2019-04-30T01:07:48.119Z,7.50
2019-04-30T01:10:11.977Z,7.50
2019-04-30T01:12:46.871Z,7.40
2019-04-30T01:15:14.500Z,7.40
2019-04-30T01:17:45.313Z,7.40
2019-04-30T01:20:12.154Z,7.40
2019-04-30T01:22:40.695Z,7.40
2019-04-30T01:25:13.483Z,7.40
2019-04-30T01:27:45.782Z,7.40
2019-04-30T01:30:17.838Z,7.50
2019-04-30T01:32:43.825Z,7.60
2019-04-30T01:35:12.290Z,7.60
2019-04-30T01:37:40.823Z,7.50
2019-04-30T01:40:13.527Z,7.50
2019-04-30T01:42:47.527Z,7.50
2019-04-30T01:45:10.289Z,7.50
2019-04-30T01:47:39.687Z,7.60
2019-04-30T01:50:09.217Z,7.60
2019-04-30T01:52:53.155Z,7.50
2019-04-30T01:55:30.155Z,7.40
2019-04-30T01:58:03.215Z,7.40
2019-04-30T02:00:39.208Z,7.40
2019-04-30T02:03:08.777Z,7.40
2019-04-30T02:05:38.619Z,7.40
2019-04-30T02:08:08.435Z,7.40
2019-04-30T02:10:37.410Z,7.40
2019-04-30T02:13:06.114Z,7.50
2019-04-30T02:15:34.667Z,7.50
2019-04-30T02:18:03.388Z,7.40
2019-04-30T02:20:31.854Z,7.40
2019-04-30T02:23:00.583Z,7.50
2019-04-30T02:25:29.553Z,7.60
2019-04-30T02:27:59.049Z,7.60
2019-04-30T02:30:30.831Z,7.50
2019-04-30T02:33:00.467Z,7.50
2019-04-30T02:35:30.175Z,7.50
2019-04-30T02:38:15.391Z,7.50
2019-04-30T02:40:44.900Z,7.50
2019-04-30T02:43:14.379Z,7.40
2019-04-30T02:45:44.200Z,7.40
2019-04-30T02:48:13.747Z,7.40
2019-04-30T02:50:43.146Z,7.40
2019-04-30T02:53:31.360Z,7.40
2019-04-30T02:56:02.626Z,7.30
2019-04-30T02:58:30.019Z,7.40
2019-04-30T03:01:00.252Z,7.30
2019-04-30T03:03:29.945Z,7.30
2019-04-30T03:05:59.568Z,7.40
2019-04-30T03:08:29.728Z,7.40
2019-04-30T03:11:00.060Z,7.40
2019-04-30T03:13:29.967Z,7.50
2019-04-30T03:15:59.339Z,7.50
2019-04-30T03:18:32.404Z,7.50
2019-04-30T03:21:11.437Z,7.50
2019-04-30T03:23:40.010Z,7.40
2019-04-30T03:26:09.648Z,7.40
2019-04-30T03:28:39.714Z,7.40
2019-04-30T03:31:11.948Z,7.40
2019-04-30T03:33:42.312Z,7.40
2019-04-30T03:36:12.535Z,7.50
2019-04-30T03:38:39.665Z,7.50
2019-04-30T03:41:09.732Z,7.40
2019-04-30T03:43:40.008Z,7.40
2019-04-30T03:46:10.208Z,7.40
2019-04-30T03:48:39.539Z,7.40
2019-04-30T03:51:10.643Z,7.40
2019-04-30T03:53:39.705Z,7.40
2019-04-30T03:56:09.461Z,7.40
2019-04-30T03:58:39.625Z,7.40
2019-04-30T04:01:24.822Z,7.50
2019-04-30T04:04:00.383Z,7.40
2019-04-30T04:06:41.665Z,7.40
2019-04-30T04:09:11.750Z,7.40
2019-04-30T04:11:42.040Z,7.50
2019-04-30T04:14:10.496Z,7.40
2019-04-30T04:16:41.036Z,7.40
2019-04-30T04:19:09.622Z,7.40
2019-04-30T04:21:39.360Z,7.40
2019-04-30T04:24:10.442Z,7.50
2019-04-30T04:26:43.333Z,7.50
2019-04-30T04:29:09.503Z,7.50
2019-04-30T04:31:39.515Z,7.40
2019-04-30T04:34:09.345Z,7.50
2019-04-30T04:36:39.991Z,7.60
2019-04-30T04:39:09.875Z,7.60
2019-04-30T04:41:39.864Z,7.60
2019-04-30T04:44:12.577Z,7.60
2019-04-30T04:46:40.170Z,7.50
2019-04-30T04:49:09.125Z,7.40
2019-04-30T04:51:41.837Z,7.50
2019-04-30T04:54:10.383Z,7.50
2019-04-30T04:56:39.956Z,7.50
2019-04-30T04:59:10.248Z,7.60
2019-04-30T05:01:38.879Z,7.70
2019-04-30T05:04:11.471Z,7.70
2019-04-30T05:06:39.475Z,7.50
2019-04-30T05:09:09.743Z,7.50
2019-04-30T05:11:39.566Z,7.50
2019-04-30T05:14:08.351Z,7.70
2019-04-30T05:16:38.937Z,7.70
2019-04-30T05:19:08.913Z,7.80
2019-04-30T05:21:42.721Z,7.70
2019-04-30T05:24:09.058Z,7.80
2019-04-30T05:26:38.679Z,7.80
2019-04-30T05:29:09.438Z,7.80
2019-04-30T05:31:38.505Z,7.80
2019-04-30T05:34:10.112Z,7.90
2019-04-30T05:36:39.150Z,7.90
2019-04-30T05:39:08.663Z,7.80
2019-04-30T05:41:38.643Z,7.80
2019-04-30T05:44:08.885Z,7.70
2019-04-30T05:46:39.650Z,7.90
2019-04-30T05:49:09.026Z,7.90
2019-04-30T05:51:38.788Z,7.80
2019-04-30T05:54:09.119Z,7.90
2019-04-30T05:56:39.528Z,7.80
2019-04-30T05:59:09.009Z,7.80
2019-04-30T06:01:39.505Z,7.80
2019-04-30T06:04:09.408Z,7.80
2019-04-30T06:06:38.894Z,7.80
2019-04-30T06:09:33.245Z,7.80
2019-04-30T06:12:13.192Z,7.90
2019-04-30T06:14:48.988Z,7.90
2019-04-30T06:17:15.458Z,7.90
2019-04-30T06:19:43.973Z,7.80
2019-04-30T06:22:12.860Z,7.70
2019-04-30T06:24:41.647Z,7.80
2019-04-30T06:27:10.885Z,7.70
2019-04-30T06:29:39.939Z,7.70
2019-04-30T06:32:08.865Z,7.80
2019-04-30T06:34:39.514Z,7.80
2019-04-30T06:37:09.669Z,7.80
2019-04-30T06:39:38.780Z,7.70
2019-04-30T06:42:12.232Z,7.60
2019-04-30T06:44:41.341Z,7.70
2019-04-30T06:47:09.169Z,7.80
2019-04-30T06:49:39.272Z,7.80
2019-04-30T06:52:19.593Z,7.90
2019-04-30T06:54:39.764Z,7.90
2019-04-30T06:57:09.821Z,7.80
2019-04-30T06:59:39.599Z,7.70
2019-04-30T07:02:09.016Z,7.60
2019-04-30T07:04:40.032Z,7.70
2019-04-30T07:07:09.168Z,7.70
2019-04-30T07:09:53.214Z,7.70
2019-04-30T07:12:27.628Z,7.50
2019-04-30T07:14:53.084Z,7.50
2019-04-30T07:17:21.556Z,7.60
2019-04-30T07:19:55.706Z,7.50
2019-04-30T07:22:36.150Z,7.60
2019-04-30T07:24:50.522Z,7.60
2019-04-30T07:27:24.013Z,7.60
2019-04-30T07:29:49.672Z,7.60
2019-04-30T07:32:19.761Z,7.60
2019-04-30T07:34:49.500Z,7.60
2019-04-30T07:37:24.047Z,7.60
2019-04-30T07:39:49.326Z,7.60
2019-04-30T07:42:19.236Z,7.60
2019-04-30T07:44:50.073Z,7.60
2019-04-30T07:47:19.488Z,7.60
2019-04-30T07:49:52.998Z,7.50
2019-04-30T07:52:21.238Z,7.60
2019-04-30T07:54:51.587Z,7.80
2019-04-30T07:57:19.353Z,7.80
2019-04-30T07:59:49.893Z,7.90
2019-04-30T08:02:20.789Z,7.80
2019-04-30T08:04:59.870Z,7.90
2019-04-30T08:07:29.777Z,7.80
2019-04-30T08:09:59.055Z,7.80
2019-04-30T08:12:31.958Z,7.80
2019-04-30T08:14:59.473Z,7.80
2019-04-30T08:17:28.943Z,7.70
2019-04-30T08:19:58.761Z,7.80
2019-04-30T08:22:29.612Z,7.90
2019-04-30T08:24:58.669Z,7.80
2019-04-30T08:27:29.478Z,7.80
2019-04-30T08:29:59.227Z,7.80
2019-04-30T08:32:28.973Z,7.80
2019-04-30T08:35:00.961Z,7.70
2019-04-30T08:37:28.862Z,7.70
2019-04-30T08:39:59.775Z,7.90
2019-04-30T08:42:31.622Z,8.00
2019-04-30T08:44:58.560Z,7.90
2019-04-30T08:47:29.094Z,7.90
2019-04-30T08:50:01.622Z,7.70
2019-04-30T08:52:27.515Z,7.80
2019-04-30T08:54:56.003Z,7.80
2019-04-30T08:57:24.478Z,7.80
2019-04-30T08:59:52.925Z,7.80
2019-04-30T09:02:21.776Z,7.80
2019-04-30T09:04:51.911Z,7.80
2019-04-30T09:07:20.387Z,7.90
2019-04-30T09:09:48.998Z,7.70
2019-04-30T09:12:19.527Z,7.80
2019-04-30T09:14:49.111Z,7.80
2019-04-30T09:17:19.674Z,7.70
2019-04-30T09:19:48.955Z,7.60
2019-04-30T09:22:19.533Z,7.60
2019-04-30T09:24:49.784Z,7.80
2019-04-30T09:27:19.532Z,7.90
2019-04-30T09:29:49.260Z,7.80
2019-04-30T09:32:19.320Z,7.80
2019-04-30T09:34:48.834Z,7.80
2019-04-30T09:37:18.672Z,7.80
2019-04-30T09:39:49.432Z,7.80
2019-04-30T09:42:19.533Z,7.80
2019-04-30T09:44:49.260Z,7.80
2019-04-30T09:47:20.167Z,7.80
2019-04-30T09:49:49.333Z,7.80
2019-04-30T09:52:19.357Z,7.80
2019-04-30T09:54:50.108Z,7.90
2019-04-30T09:57:19.293Z,8.00
2019-04-30T09:59:48.603Z,8.10
2019-04-30T10:02:19.121Z,8.10
2019-04-30T10:04:48.411Z,8.10
2019-04-30T10:07:19.363Z,8.20
2019-04-30T10:09:50.649Z,8.20
2019-04-30T10:12:19.523Z,8.30
2019-04-30T10:14:49.507Z,8.40
2019-04-30T10:17:22.724Z,8.30
2019-04-30T10:19:51.180Z,8.30
2019-04-30T10:22:19.802Z,8.30
2019-04-30T10:24:49.448Z,8.50
2019-04-30T10:27:19.062Z,8.60
2019-04-30T10:29:49.279Z,8.60
2019-04-30T10:32:18.697Z,8.60
2019-04-30T10:34:47.480Z,8.70
2019-04-30T10:37:15.967Z,8.70
2019-04-30T10:39:44.530Z,8.80
2019-04-30T10:42:13.041Z,8.90
2019-04-30T10:44:41.513Z,8.80
2019-04-30T10:47:10.105Z,8.90
2019-04-30T10:49:38.992Z,9.00
2019-04-30T10:52:09.334Z,9.00
2019-04-30T10:54:38.889Z,8.90
2019-04-30T10:57:08.688Z,9.10
2019-04-30T10:59:37.710Z,9.00
2019-04-30T11:02:06.345Z,9.10
2019-04-30T11:04:34.887Z,9.10
2019-04-30T11:07:03.506Z,9.10
2019-04-30T11:09:32.653Z,9.10
2019-04-30T11:12:03.027Z,9.10
2019-04-30T11:14:31.775Z,9.20
2019-04-30T11:17:00.574Z,9.10
2019-04-30T11:19:29.654Z,9.00
2019-04-30T11:21:58.500Z,9.00
2019-04-30T11:24:36.633Z,9.10
2019-04-30T11:26:59.515Z,9.20
2019-04-30T11:29:30.547Z,9.30
2019-04-30T11:31:59.540Z,9.30
2019-04-30T11:34:28.455Z,9.30
2019-04-30T11:36:57.147Z,9.30
2019-04-30T11:39:26.548Z,9.30
2019-04-30T11:41:55.501Z,9.40
2019-04-30T11:44:30.826Z,9.40
2019-04-30T11:47:00.841Z,9.60
2019-04-30T11:49:29.823Z,9.70
2019-04-30T11:51:58.623Z,9.60
2019-04-30T11:54:27.399Z,9.60
2019-04-30T11:56:55.931Z,9.60
2019-04-30T11:59:24.404Z,9.70
2019-04-30T12:01:54.523Z,9.80
2019-04-30T12:04:23.010Z,9.80
2019-04-30T12:06:53.091Z,9.90
2019-04-30T12:09:41.329Z,10.00
2019-04-30T12:12:09.799Z,10.00
2019-04-30T12:14:39.581Z,10.10
2019-04-30T12:17:08.433Z,10.10
2019-04-30T12:19:38.382Z,10.20
2019-04-30T12:22:07.141Z,10.20
2019-04-30T12:24:35.617Z,10.20
2019-04-30T12:27:04.246Z,10.20
2019-04-30T12:29:32.717Z,10.20
2019-04-30T12:32:01.197Z,10.20
2019-04-30T12:34:29.673Z,10.40
2019-04-30T12:36:59.631Z,10.40
2019-04-30T12:39:29.969Z,10.50
2019-04-30T12:41:59.254Z,10.40
2019-04-30T12:44:28.720Z,10.40
2019-04-30T12:46:58.647Z,10.30
2019-04-30T12:49:28.801Z,10.40
2019-04-30T12:52:02.135Z,10.50
2019-04-30T12:54:35.406Z,10.40
2019-04-30T12:57:11.805Z,10.70
2019-04-30T12:59:40.295Z,10.70
2019-04-30T13:02:09.150Z,10.60
2019-04-30T13:04:39.377Z,10.60
2019-04-30T13:07:10.502Z,10.50
2019-04-30T13:09:39.786Z,10.70
2019-04-30T13:12:10.231Z,10.70
2019-04-30T13:14:51.025Z,10.80
2019-04-30T13:17:09.105Z,10.90
2019-04-30T13:19:37.561Z,11.00
2019-04-30T13:22:06.135Z,11.00
2019-04-30T13:24:34.951Z,11.00
2019-04-30T13:27:03.609Z,10.90
2019-04-30T13:29:36.735Z,11.00
2019-04-30T13:32:05.286Z,11.00
2019-04-30T13:34:41.303Z,10.90
2019-04-30T13:37:09.855Z,10.90
2019-04-30T13:39:50.181Z,11.40
2019-04-30T13:42:17.549Z,11.50
2019-04-30T13:44:42.099Z,11.40
2019-04-30T13:47:10.980Z,11.40
2019-04-30T13:49:39.611Z,11.40
2019-04-30T13:52:08.104Z,11.20
2019-04-30T13:54:36.571Z,11.30
2019-04-30T13:57:05.176Z,11.20
2019-04-30T13:59:33.669Z,11.40
2019-04-30T14:02:02.204Z,11.20
2019-04-30T14:04:41.386Z,11.30
2019-04-30T14:07:14.364Z,11.30
2019-04-30T14:09:42.852Z,11.30
2019-04-30T14:12:11.335Z,11.40
2019-04-30T14:14:39.833Z,11.30
2019-04-30T14:17:09.223Z,11.40
2019-04-30T14:19:38.018Z,11.40
2019-04-30T14:22:08.928Z,11.30
2019-04-30T14:24:37.366Z,11.20
2019-04-30T14:27:05.967Z,11.40
2019-04-30T14:29:34.437Z,11.30
2019-04-30T14:32:03.055Z,11.30
2019-04-30T14:34:31.533Z,11.30
2019-04-30T14:37:00.105Z,11.40
2019-04-30T14:39:29.181Z,11.20
2019-04-30T14:42:00.091Z,11.20
2019-04-30T14:44:31.890Z,11.30
2019-04-30T14:47:02.079Z,11.20
2019-04-30T14:49:35.853Z,11.30
2019-04-30T14:52:04.731Z,11.30
2019-04-30T14:54:41.087Z,11.30
2019-04-30T14:57:11.215Z,11.30
2019-04-30T15:00:01.968Z,11.20
2019-04-30T15:02:31.202Z,11.20
2019-04-30T15:04:59.658Z,11.40
2019-04-30T15:07:29.548Z,11.40
2019-04-30T15:09:58.220Z,11.40
2019-04-30T15:12:26.678Z,11.30
2019-04-30T15:14:55.163Z,11.30
2019-04-30T15:17:23.709Z,11.30
2019-04-30T15:19:54.487Z,11.30
2019-04-30T15:22:22.420Z,11.30
2019-04-30T15:24:50.879Z,11.20
2019-04-30T15:27:19.502Z,11.20
2019-04-30T15:29:56.619Z,11.20
2019-04-30T15:32:18.633Z,11.20
2019-04-30T15:34:49.042Z,11.20
2019-04-30T15:37:21.738Z,11.10
2019-04-30T15:39:48.992Z,11.10
2019-04-30T15:42:19.055Z,11.10
2019-04-30T15:44:49.477Z,11.00
2019-04-30T15:47:18.911Z,11.10
2019-04-30T15:49:47.751Z,11.10
2019-04-30T15:52:16.333Z,11.00
2019-04-30T15:54:45.194Z,11.00
2019-04-30T15:57:13.741Z,10.90
2019-04-30T15:59:42.294Z,10.90
2019-04-30T16:02:12.764Z,10.80
2019-04-30T16:04:54.770Z,10.80
2019-04-30T16:07:23.268Z,10.80
2019-04-30T16:09:53.455Z,10.80
2019-04-30T16:12:23.563Z,10.80
2019-04-30T16:14:52.057Z,10.80
2019-04-30T16:17:22.201Z,10.80
2019-04-30T16:19:50.759Z,10.80
2019-04-30T16:22:20.903Z,10.90
2019-04-30T16:24:49.606Z,11.00
2019-04-30T16:27:19.212Z,10.90
2019-04-30T16:29:49.795Z,10.90
2019-04-30T16:32:19.150Z,10.80
2019-04-30T16:34:49.423Z,10.90
2019-04-30T16:37:19.960Z,10.90
2019-04-30T16:39:48.422Z,10.90
2019-04-30T16:42:18.883Z,10.90
2019-04-30T16:44:47.522Z,11.00
2019-04-30T16:47:16.987Z,10.90
2019-04-30T16:49:45.786Z,10.90
2019-04-30T16:52:14.460Z,10.90
2019-04-30T16:54:42.957Z,11.00
2019-04-30T16:57:11.486Z,11.00
2019-04-30T16:59:41.625Z,11.00
2019-04-30T17:02:11.353Z,11.10
2019-04-30T17:04:41.521Z,11.00
2019-04-30T17:07:29.965Z,10.90
2019-04-30T17:10:00.075Z,11.00
2019-04-30T17:12:30.193Z,11.00
2019-04-30T17:15:16.508Z,11.00
2019-04-30T17:17:44.995Z,11.10
2019-04-30T17:20:14.591Z,11.00
2019-04-30T17:22:43.055Z,10.90
2019-04-30T17:25:12.179Z,10.90
2019-04-30T17:27:40.651Z,10.80
2019-04-30T17:30:11.063Z,10.80
2019-04-30T17:32:39.769Z,10.80
2019-04-30T17:35:09.112Z,10.80
2019-04-30T17:37:37.736Z,10.70
2019-04-30T17:40:09.460Z,10.60
2019-04-30T17:42:38.194Z,10.50
2019-04-30T17:45:09.468Z,10.30
2019-04-30T17:47:38.171Z,10.20
2019-04-30T17:50:08.916Z,10.20
2019-04-30T17:52:37.807Z,10.10
2019-04-30T17:55:09.752Z,10.00
2019-04-30T17:57:40.240Z,9.90
2019-04-30T18:00:18.963Z,9.90
2019-04-30T18:02:40.967Z,9.80
2019-04-30T18:05:11.422Z,9.80
2019-04-30T18:07:40.036Z,9.70
2019-04-30T18:10:10.733Z,9.60
2019-04-30T18:12:39.292Z,9.40
2019-04-30T18:15:12.488Z,9.30
2019-04-30T18:17:42.165Z,9.30
2019-04-30T18:20:12.504Z,9.30
2019-04-30T18:22:42.966Z,9.30
2019-04-30T18:25:19.350Z,9.30
2019-04-30T18:27:52.458Z,9.30
2019-04-30T18:30:22.971Z,9.30
2019-04-30T18:32:51.419Z,9.30
2019-04-30T18:35:20.336Z,9.20
2019-04-30T18:37:48.947Z,9.10
2019-04-30T18:40:18.665Z,9.10
2019-04-30T18:42:49.480Z,8.90
2019-04-30T18:45:19.409Z,8.70
2019-04-30T18:47:48.193Z,8.80
2019-04-30T18:50:17.162Z,8.90
2019-04-30T18:52:45.977Z,9.00
2019-04-30T18:55:14.527Z,8.90
2019-04-30T18:57:55.785Z,8.90
2019-04-30T19:00:15.559Z,8.60
2019-04-30T19:02:44.393Z,8.50
2019-04-30T19:05:19.055Z,8.40
2019-04-30T19:07:50.920Z,8.40
2019-04-30T19:10:23.981Z,8.50
2019-04-30T19:13:00.005Z,8.40
2019-04-30T19:16:12.740Z,8.40
2019-04-30T19:18:24.291Z,8.40
2019-04-30T19:20:57.267Z,8.30
2019-04-30T19:23:25.730Z,8.20
2019-04-30T19:25:54.204Z,8.10
2019-04-30T19:28:22.696Z,8.10
2019-04-30T19:30:57.932Z,8.10
2019-04-30T19:33:21.382Z,8.00
2019-04-30T19:35:50.609Z,7.90
2019-04-30T19:38:19.369Z,8.00
2019-04-30T19:40:49.388Z,8.20
2019-04-30T19:43:18.057Z,8.20
2019-04-30T19:45:46.539Z,8.20
2019-04-30T19:48:16.194Z,8.20
2019-04-30T19:50:44.880Z,7.90
2019-04-30T19:53:13.421Z,8.00
2019-04-30T19:55:41.921Z,8.00
2019-04-30T19:58:14.489Z,8.00
2019-04-30T20:00:40.653Z,8.10
2019-04-30T20:03:09.128Z,8.10
2019-04-30T20:05:39.450Z,7.90
2019-04-30T20:08:08.994Z,7.80
2019-04-30T20:10:39.724Z,7.70
2019-04-30T20:13:08.180Z,7.90
2019-04-30T20:15:36.658Z,7.80
2019-04-30T20:18:05.119Z,7.90
2019-04-30T20:20:34.076Z,7.80
2019-04-30T20:23:02.543Z,7.80
2019-04-30T20:25:31.293Z,7.80
2019-04-30T20:27:59.759Z,7.50
2019-04-30T20:30:29.227Z,7.50
2019-04-30T20:32:59.425Z,7.30
2019-04-30T20:35:28.400Z,7.30
2019-04-30T20:38:13.492Z,7.20
2019-04-30T20:40:47.607Z,7.20
2019-04-30T20:43:13.801Z,7.30
2019-04-30T20:45:42.254Z,7.30
2019-04-30T20:48:10.825Z,7.20
2019-04-30T20:50:39.374Z,7.20
2019-04-30T20:53:08.826Z,7.30
2019-04-30T20:55:38.815Z,7.30
2019-04-30T20:58:09.502Z,7.40
2019-04-30T21:00:37.983Z,7.40
2019-04-30T21:03:06.584Z,7.10
2019-04-30T21:05:35.133Z,7.10
2019-04-30T21:08:03.796Z,7.10
2019-04-30T21:10:32.285Z,7.10
2019-04-30T21:13:00.761Z,6.90
2019-04-30T21:15:29.738Z,6.90
2019-04-30T21:17:58.761Z,7.10
2019-04-30T21:20:28.850Z,7.10
2019-04-30T21:22:59.503Z,6.90
2019-04-30T21:25:29.173Z,7.10
2019-04-30T21:27:59.744Z,7.10
2019-04-30T21:30:28.049Z,7.00
2019-04-30T21:33:00.946Z,6.90
2019-04-30T21:35:33.989Z,7.00
2019-04-30T21:38:02.610Z,7.10
2019-04-30T21:40:31.384Z,7.20
2019-04-30T21:42:59.858Z,7.40
2019-04-30T21:45:29.161Z,7.30
2019-04-30T21:47:58.833Z,7.60
2019-04-30T21:50:29.622Z,7.30
2019-04-30T21:52:59.750Z,7.30
2019-04-30T21:55:29.567Z,7.10
2019-04-30T21:57:59.391Z,7.30
2019-04-30T22:00:36.639Z,7.40
2019-04-30T22:03:07.031Z,7.10
2019-04-30T22:05:35.739Z,7.10
2019-04-30T22:08:04.473Z,7.00
2019-04-30T22:10:33.089Z,7.10
2019-04-30T22:13:01.565Z,6.90
2019-04-30T22:15:30.044Z,7.00
2019-04-30T22:17:58.520Z,7.00
2019-04-30T22:20:29.073Z,7.20
2019-04-30T22:22:57.447Z,7.40
2019-04-30T22:25:25.921Z,7.40
2019-04-30T22:27:54.420Z,7.30
2019-04-30T22:30:22.968Z,7.10
2019-04-30T22:32:51.429Z,7.10
2019-04-30T22:35:27.005Z,6.90
2019-04-30T22:38:12.417Z,6.90
2019-04-30T22:40:40.975Z,7.10
2019-04-30T22:43:09.608Z,6.80
2019-04-30T22:45:42.685Z,6.80
2019-04-30T22:48:11.161Z,6.90
2019-04-30T22:50:39.634Z,6.90
2019-04-30T22:53:08.116Z,6.70
2019-04-30T22:55:36.657Z,6.60
2019-04-30T22:58:05.489Z,6.80
2019-04-30T23:00:35.587Z,6.90
2019-04-30T23:03:06.248Z,6.90
2019-04-30T23:05:34.722Z,6.70
2019-04-30T23:08:03.538Z,6.90
2019-04-30T23:10:32.003Z,6.80
2019-04-30T23:13:00.474Z,6.80
2019-04-30T23:15:28.969Z,6.90
2019-04-30T23:17:57.447Z,6.70
2019-04-30T23:20:25.985Z,6.70
2019-04-30T23:22:54.496Z,6.70
2019-04-30T23:25:22.959Z,6.70
2019-04-30T23:27:51.551Z,6.70
2019-04-30T23:30:20.240Z,6.60
2019-04-30T23:32:48.729Z,6.60
2019-04-30T23:35:17.279Z,6.60
2019-04-30T23:37:45.748Z,6.80
2019-04-30T23:40:32.133Z,6.60
2019-04-30T23:43:00.586Z,6.60
2019-04-30T23:45:29.403Z,6.40
2019-04-30T23:47:57.875Z,6.50
2019-04-30T23:50:26.486Z,6.60
2019-04-30T23:52:54.967Z,6.60
2019-04-30T23:55:23.503Z,6.60
2019-04-30T23:57:52.002Z,6.50
